Time,TemperatureF,DewpointF,PressureIn,WindDirection,WindDirectionDegrees,WindSpeedMPH,WindSpeedGustMPH,Humidity,HourlyPrecipIn,Conditions,Clouds,dailyrainin,SoftwareType,DateUTC
2013-02-04 00:03:00,57.3,45.2,30.00,SE,127,2.0,3.0,64,0.00,,,0.00,Wunderground v.1.15,2013-02-04 07:03:00,
2013-02-04 00:08:00,57.3,45.2,30.00,ESE,120,1.0,3.0,64,0.00,,,0.00,Wunderground v.1.15,2013-02-04 07:08:00,
2013-02-04 00:13:00,56.8,45.6,30.00,SE,133,2.0,2.0,66,0.00,,,0.00,Wunderground v.1.15,2013-02-04 07:13:00,
2013-02-04 00:18:00,56.6,45.4,30.00,SE,124,2.0,2.0,66,0.00,,,0.00,Wunderground v.1.15,2013-02-04 07:18:00,
2013-02-04 00:24:00,56.4,45.6,30.00,SE,135,1.0,2.0,67,0.00,,,0.00,Wunderground v.1.15,2013-02-04 07:24:00,
2013-02-04 00:29:00,56.3,45.1,30.00,ESE,121,1.0,2.0,66,0.00,,,0.00,Wunderground v.1.15,2013-02-04 07:29:00,
2013-02-04 00:34:00,56.4,44.8,30.00,SE,131,2.0,2.0,65,0.00,,,0.00,Wunderground v.1.15,2013-02-04 07:34:00,
2013-02-04 00:39:00,56.5,44.9,30.00,SE,126,1.0,2.0,65,0.00,,,0.00,Wunderground v.1.15,2013-02-04 07:39:00,
2013-02-04 00:44:00,56.7,44.7,30.00,ESE,119,1.0,2.0,64,0.00,,,0.00,Wunderground v.1.15,2013-02-04 07:44:00,
2013-02-04 00:49:00,56.6,44.6,30.00,ESE,120,0.0,2.0,64,0.00,,,0.00,Wunderground v.1.15,2013-02-04 07:49:00,
2013-02-04 00:54:00,56.2,44.2,30.00,ESE,109,0.0,1.0,64,0.00,,,0.00,Wunderground v.1.15,2013-02-04 07:54:00,
2013-02-04 00:59:00,56.1,44.1,30.00,SE,127,0.0,1.0,64,0.00,,,0.00,Wunderground v.1.15,2013-02-04 07:59:00,
2013-02-04 01:05:00,55.7,44.1,30.00,SE,127,0.0,0.0,65,0.00,,,0.00,Wunderground v.1.15,2013-02-04 08:05:00,
2013-02-04 01:10:00,55.3,43.7,30.00,SE,127,0.0,0.0,65,0.00,,,0.00,Wunderground v.1.15,2013-02-04 08:10:00,
2013-02-04 01:15:00,55.6,44.0,30.00,ESE,120,0.0,0.0,65,0.00,,,0.00,Wunderground v.1.15,2013-02-04 08:15:00,
2013-02-04 01:20:00,55.6,44.0,30.00,ESE,122,0.0,0.0,65,0.00,,,0.00,Wunderground v.1.15,2013-02-04 08:20:00,
2013-02-04 01:26:00,55.5,43.9,30.00,SE,124,1.0,1.0,65,0.00,,,0.00,Wunderground v.1.15,2013-02-04 08:26:00,
2013-02-04 01:31:00,55.4,44.2,30.00,ESE,115,1.0,1.0,66,0.00,,,0.00,Wunderground v.1.15,2013-02-04 08:31:00,
2013-02-04 01:36:00,55.0,44.2,30.00,ESE,119,0.0,1.0,67,0.00,,,0.00,Wunderground v.1.15,2013-02-04 08:36:00,
2013-02-04 01:41:00,55.0,44.2,30.00,ESE,122,1.0,1.0,67,0.00,,,0.00,Wunderground v.1.15,2013-02-04 08:41:00,
2013-02-04 01:46:00,55.1,44.3,30.00,East,100,0.0,2.0,67,0.00,,,0.00,Wunderground v.1.15,2013-02-04 08:46:00,
2013-02-04 01:51:00,55.0,44.2,30.00,ESE,121,2.0,2.0,67,0.00,,,0.00,Wunderground v.1.15,2013-02-04 08:51:00,
2013-02-04 01:56:00,54.7,44.3,30.00,SE,131,0.0,2.0,68,0.00,,,0.00,Wunderground v.1.15,2013-02-04 08:56:00,
2013-02-04 02:02:00,54.4,44.4,30.00,ESE,108,0.0,1.0,69,0.00,,,0.00,Wunderground v.1.15,2013-02-04 09:02:00,
2013-02-04 02:07:00,54.0,44.4,30.00,ESE,122,0.0,1.0,70,0.00,,,0.00,Wunderground v.1.15,2013-02-04 09:07:00,
2013-02-04 02:12:00,53.8,44.6,30.00,SE,141,2.0,2.0,71,0.00,,,0.00,Wunderground v.1.15,2013-02-04 09:12:00,
2013-02-04 02:17:00,53.9,44.3,30.00,ESE,113,0.0,2.0,70,0.00,,,0.00,Wunderground v.1.15,2013-02-04 09:17:00,
2013-02-04 02:23:00,54.0,44.4,30.00,ESE,114,1.0,2.0,70,0.00,,,0.00,Wunderground v.1.15,2013-02-04 09:23:00,
2013-02-04 02:28:00,54.0,44.4,30.00,ESE,104,0.0,2.0,70,0.00,,,0.00,Wunderground v.1.15,2013-02-04 09:28:00,
2013-02-04 02:33:00,53.6,44.4,30.00,East,100,0.0,1.0,71,0.00,,,0.00,Wunderground v.1.15,2013-02-04 09:33:00,
2013-02-04 02:39:00,53.3,44.1,30.00,North,11,2.0,2.0,71,0.00,,,0.00,Wunderground v.1.15,2013-02-04 09:39:00,
2013-02-04 02:44:00,51.1,41.7,30.00,NNE,25,0.0,3.0,70,0.00,,,0.00,Wunderground v.1.15,2013-02-04 09:44:00,
2013-02-04 02:49:00,49.9,41.2,30.00,North,360,0.0,3.0,72,0.00,,,0.00,Wunderground v.1.15,2013-02-04 09:49:00,
2013-02-04 02:54:00,49.4,42.1,30.00,NNE,32,0.0,1.0,76,0.00,,,0.00,Wunderground v.1.15,2013-02-04 09:54:00,
2013-02-04 02:59:00,49.5,42.6,30.00,NNE,33,0.0,1.0,77,0.00,,,0.00,Wunderground v.1.15,2013-02-04 09:59:00,
2013-02-04 03:04:00,49.9,42.6,30.00,NNE,33,0.0,0.0,76,0.00,,,0.00,Wunderground v.1.15,2013-02-04 10:04:00,
2013-02-04 03:09:00,49.1,41.2,30.00,North,360,1.0,1.0,74,0.00,,,0.00,Wunderground v.1.15,2013-02-04 10:09:00,
2013-02-04 03:14:00,48.3,41.4,30.00,NE,51,0.0,1.0,77,0.00,,,0.00,Wunderground v.1.15,2013-02-04 10:14:00,
2013-02-04 03:19:00,48.8,43.2,30.00,East,96,0.0,1.0,81,0.00,,,0.00,Wunderground v.1.15,2013-02-04 10:19:00,
2013-02-04 03:24:00,49.3,43.1,30.00,East,97,0.0,0.0,79,0.00,,,0.00,Wunderground v.1.15,2013-02-04 10:24:00,
2013-02-04 03:29:00,49.0,42.4,30.00,East,97,0.0,0.0,78,0.00,,,0.00,Wunderground v.1.15,2013-02-04 10:29:00,
2013-02-04 03:34:00,48.7,42.8,30.00,East,97,0.0,0.0,80,0.00,,,0.00,Wunderground v.1.15,2013-02-04 10:34:00,
2013-02-04 03:39:00,49.4,43.5,30.00,ESE,112,0.0,1.0,80,0.00,,,0.00,Wunderground v.1.15,2013-02-04 10:39:00,
2013-02-04 03:44:00,49.7,43.1,30.00,ESE,112,0.0,0.0,78,0.00,,,0.00,Wunderground v.1.15,2013-02-04 10:44:00,
2013-02-04 03:49:00,48.9,42.3,29.99,NE,44,0.0,0.0,78,0.00,,,0.00,Wunderground v.1.15,2013-02-04 10:49:00,
2013-02-04 03:54:00,48.8,42.9,30.00,NE,44,0.0,0.0,80,0.00,,,0.00,Wunderground v.1.15,2013-02-04 10:54:00,
2013-02-04 03:59:00,48.5,42.6,29.99,NE,44,0.0,0.0,80,0.00,,,0.00,Wunderground v.1.15,2013-02-04 10:59:00,
2013-02-04 04:04:00,48.0,42.1,30.00,NE,44,0.0,1.0,80,0.00,,,0.00,Wunderground v.1.15,2013-02-04 11:04:00,
2013-02-04 04:09:00,47.9,42.7,30.00,SSE,152,0.0,1.0,82,0.00,,,0.00,Wunderground v.1.15,2013-02-04 11:09:00,
2013-02-04 04:14:00,48.3,43.1,30.00,SSE,148,0.0,1.0,82,0.00,,,0.00,Wunderground v.1.15,2013-02-04 11:14:00,
2013-02-04 04:19:00,48.4,42.8,30.00,SE,135,0.0,1.0,81,0.00,,,0.00,Wunderground v.1.15,2013-02-04 11:19:00,
2013-02-04 04:24:00,48.5,42.9,29.99,SE,129,0.0,0.0,81,0.00,,,0.00,Wunderground v.1.15,2013-02-04 11:24:00,
2013-02-04 04:29:00,48.7,43.1,30.00,SE,129,0.0,0.0,81,0.00,,,0.00,Wunderground v.1.15,2013-02-04 11:29:00,
2013-02-04 04:34:00,48.6,43.0,30.00,NNE,19,2.0,2.0,81,0.00,,,0.00,Wunderground v.1.15,2013-02-04 11:34:00,
2013-02-04 04:39:00,48.2,42.3,30.00,North,1,1.0,2.0,80,0.00,,,0.00,Wunderground v.1.15,2013-02-04 11:39:00,
2013-02-04 04:44:00,47.9,42.3,30.00,North,1,0.0,1.0,81,0.00,,,0.00,Wunderground v.1.15,2013-02-04 11:44:00,
2013-02-04 04:49:00,47.5,42.0,30.00,North,1,1.0,1.0,81,0.00,,,0.00,Wunderground v.1.15,2013-02-04 11:49:00,
2013-02-04 04:54:00,47.1,41.9,30.00,NE,36,0.0,1.0,82,0.00,,,0.00,Wunderground v.1.15,2013-02-04 11:54:00,
2013-02-04 04:59:00,47.2,42.6,30.00,ENE,68,0.0,1.0,84,0.00,,,0.00,Wunderground v.1.15,2013-02-04 11:59:00,
2013-02-04 05:04:00,48.0,43.1,30.00,ENE,68,0.0,1.0,83,0.00,,,0.00,Wunderground v.1.15,2013-02-04 12:04:00,
2013-02-04 05:09:00,48.7,42.8,30.00,ENE,66,0.0,1.0,80,0.00,,,0.00,Wunderground v.1.15,2013-02-04 12:09:00,
2013-02-04 05:14:00,48.9,42.7,30.00,ENE,66,0.0,1.0,79,0.00,,,0.00,Wunderground v.1.15,2013-02-04 12:14:00,
2013-02-04 05:19:00,48.9,42.7,30.00,North,4,3.0,3.0,79,0.00,,,0.00,Wunderground v.1.15,2013-02-04 12:19:00,
2013-02-04 05:24:00,48.8,42.2,30.01,NNE,27,1.0,4.0,78,0.00,,,0.00,Wunderground v.1.15,2013-02-04 12:24:00,
2013-02-04 05:29:00,48.3,42.1,30.00,North,11,0.0,4.0,79,0.00,,,0.00,Wunderground v.1.15,2013-02-04 12:29:00,
2013-02-04 05:34:00,47.5,41.3,30.00,North,8,0.0,3.0,79,0.00,,,0.00,Wunderground v.1.15,2013-02-04 12:34:00,
2013-02-04 05:39:00,46.7,40.9,30.00,North,8,0.0,3.0,80,0.00,,,0.00,Wunderground v.1.15,2013-02-04 12:39:00,
2013-02-04 05:44:00,46.3,41.1,30.00,North,8,0.0,0.0,82,0.00,,,0.00,Wunderground v.1.15,2013-02-04 12:44:00,
2013-02-04 05:49:00,46.3,41.7,30.00,NNE,12,0.0,1.0,84,0.00,,,0.00,Wunderground v.1.15,2013-02-04 12:49:00,
2013-02-04 05:54:00,46.5,42.2,30.00,ENE,70,0.0,1.0,85,0.00,,,0.00,Wunderground v.1.15,2013-02-04 12:54:00,
2013-02-04 05:59:00,46.9,42.6,30.00,ENE,68,0.0,1.0,85,0.00,,,0.00,Wunderground v.1.15,2013-02-04 12:59:00,
2013-02-04 06:04:00,47.4,42.8,30.00,NE,52,0.0,2.0,84,0.00,,,0.00,Wunderground v.1.15,2013-02-04 13:04:00,
2013-02-04 06:09:00,47.6,42.7,30.00,ENE,60,0.0,2.0,83,0.00,,,0.00,Wunderground v.1.15,2013-02-04 13:09:00,
2013-02-04 06:14:00,47.7,42.8,30.00,ENE,66,2.0,2.0,83,0.00,,,0.00,Wunderground v.1.15,2013-02-04 13:14:00,
2013-02-04 06:19:00,48.0,43.1,30.00,ENE,58,0.0,2.0,83,0.00,,,0.00,Wunderground v.1.15,2013-02-04 13:19:00,
2013-02-04 06:24:00,47.8,42.6,30.00,ENE,58,0.0,1.0,82,0.00,,,0.00,Wunderground v.1.15,2013-02-04 13:24:00,
2013-02-04 06:29:00,47.7,42.8,30.00,NNE,20,0.0,1.0,83,0.00,,,0.00,Wunderground v.1.15,2013-02-04 13:29:00,
2013-02-04 06:34:00,47.6,42.7,30.00,NNE,20,1.0,1.0,83,0.00,,,0.00,Wunderground v.1.15,2013-02-04 13:34:00,
2013-02-04 06:39:00,47.4,42.2,30.00,NNE,20,0.0,2.0,82,0.00,,,0.00,Wunderground v.1.15,2013-02-04 13:39:00,
2013-02-04 06:44:00,47.1,42.2,30.00,NNE,20,0.0,1.0,83,0.00,,,0.00,Wunderground v.1.15,2013-02-04 13:44:00,
2013-02-04 06:49:00,46.8,42.2,30.00,NNE,13,0.0,1.0,84,0.00,,,0.00,Wunderground v.1.15,2013-02-04 13:49:00,
2013-02-04 06:54:00,46.9,42.3,30.01,ENE,75,0.0,1.0,84,0.00,,,0.00,Wunderground v.1.15,2013-02-04 13:54:00,
2013-02-04 06:59:00,47.0,42.1,30.01,ENE,75,0.0,1.0,83,0.00,,,0.00,Wunderground v.1.15,2013-02-04 13:59:00,
2013-02-04 07:04:00,46.9,42.3,30.01,ENE,75,0.0,0.0,84,0.00,,,0.00,Wunderground v.1.15,2013-02-04 14:04:00,
2013-02-04 07:09:00,46.4,41.2,30.01,WSW,242,2.0,3.0,82,0.00,,,0.00,Wunderground v.1.15,2013-02-04 14:09:00,
2013-02-04 07:14:00,45.5,40.9,30.01,WSW,248,0.0,2.0,84,0.00,,,0.00,Wunderground v.1.15,2013-02-04 14:14:00,
2013-02-04 07:19:00,45.3,40.7,30.00,West,260,1.0,2.0,84,0.00,,,0.00,Wunderground v.1.15,2013-02-04 14:19:00,
2013-02-04 07:24:00,44.9,40.7,30.01,West,269,1.0,1.0,85,0.00,,,0.00,Wunderground v.1.15,2013-02-04 14:24:00,
2013-02-04 07:30:00,44.7,40.5,30.01,West,267,0.0,0.0,85,0.00,,,0.00,Wunderground v.1.15,2013-02-04 14:30:00,
2013-02-04 07:35:00,44.4,40.2,30.01,WNW,288,1.0,1.0,85,0.00,,,0.00,Wunderground v.1.15,2013-02-04 14:35:00,
2013-02-04 07:40:00,44.2,40.0,30.02,WNW,293,1.0,1.0,85,0.00,,,0.00,Wunderground v.1.15,2013-02-04 14:40:00,
2013-02-04 07:45:00,43.8,39.6,30.02,WNW,300,0.0,2.0,85,0.00,,,0.00,Wunderground v.1.15,2013-02-04 14:45:00,
2013-02-04 07:50:00,43.6,39.7,30.02,WNW,299,0.0,0.0,86,0.00,,,0.00,Wunderground v.1.15,2013-02-04 14:50:00,
2013-02-04 07:55:00,43.8,39.9,30.02,WNW,300,0.0,0.0,86,0.00,,,0.00,Wunderground v.1.15,2013-02-04 14:55:00,
2013-02-04 08:00:00,44.2,40.3,30.03,NW,319,0.0,0.0,86,0.00,,,0.00,Wunderground v.1.15,2013-02-04 15:00:00,
2013-02-04 08:05:00,44.9,41.0,30.03,NNW,338,1.0,1.0,86,0.00,,,0.00,Wunderground v.1.15,2013-02-04 15:05:00,
2013-02-04 08:10:00,45.3,40.7,30.03,North,353,0.0,1.0,84,0.00,,,0.00,Wunderground v.1.15,2013-02-04 15:10:00,
2013-02-04 08:15:00,45.5,40.9,30.04,North,351,0.0,1.0,84,0.00,,,0.00,Wunderground v.1.15,2013-02-04 15:15:00,
2013-02-04 08:20:00,45.9,41.0,30.04,North,352,0.0,0.0,83,0.00,,,0.00,Wunderground v.1.15,2013-02-04 15:20:00,
2013-02-04 08:25:00,46.5,41.9,30.04,North,351,0.0,0.0,84,0.00,,,0.00,Wunderground v.1.15,2013-02-04 15:25:00,
2013-02-04 08:30:00,47.3,41.8,30.04,North,351,0.0,1.0,81,0.00,,,0.00,Wunderground v.1.15,2013-02-04 15:30:00,
2013-02-04 08:35:00,48.0,42.4,30.04,North,5,0.0,2.0,81,0.00,,,0.00,Wunderground v.1.15,2013-02-04 15:35:00,
2013-02-04 08:40:00,49.1,43.5,30.04,North,1,0.0,0.0,81,0.00,,,0.00,Wunderground v.1.15,2013-02-04 15:40:00,
2013-02-04 08:46:00,50.2,43.9,30.04,North,352,0.0,1.0,79,0.00,,,0.00,Wunderground v.1.15,2013-02-04 15:46:00,
2013-02-04 08:51:00,50.9,43.9,30.05,North,359,1.0,2.0,77,0.00,,,0.00,Wunderground v.1.15,2013-02-04 15:51:00,
2013-02-04 08:56:00,51.1,43.8,30.05,North,358,1.0,3.0,76,0.00,,,0.00,Wunderground v.1.15,2013-02-04 15:56:00,
2013-02-04 09:01:00,51.6,44.3,30.05,North,359,1.0,1.0,76,0.00,,,0.00,Wunderground v.1.15,2013-02-04 16:01:00,
2013-02-04 09:06:00,52.1,44.1,30.05,NNW,332,1.0,3.0,74,0.00,,,0.00,Wunderground v.1.15,2013-02-04 16:06:00,
2013-02-04 09:11:00,52.8,44.4,30.05,NNE,12,0.0,2.0,73,0.00,,,0.00,Wunderground v.1.15,2013-02-04 16:11:00,
2013-02-04 09:16:00,53.9,45.1,30.05,ENE,66,0.0,3.0,72,0.00,,,0.00,Wunderground v.1.15,2013-02-04 16:16:00,
2013-02-04 09:21:00,55.2,45.6,30.05,NNW,332,1.0,3.0,70,0.00,,,0.00,Wunderground v.1.15,2013-02-04 16:21:00,
2013-02-04 09:26:00,56.2,45.0,30.05,NE,46,0.0,5.0,66,0.00,,,0.00,Wunderground v.1.15,2013-02-04 16:26:00,
2013-02-04 09:31:00,57.2,44.7,30.05,North,354,0.0,1.0,63,0.00,,,0.00,Wunderground v.1.15,2013-02-04 16:31:00,
2013-02-04 09:36:00,57.9,44.5,30.06,North,351,0.0,2.0,61,0.00,,,0.00,Wunderground v.1.15,2013-02-04 16:36:00,
2013-02-04 09:41:00,57.9,44.5,30.06,North,4,4.0,5.0,61,0.00,,,0.00,Wunderground v.1.15,2013-02-04 16:41:00,
2013-02-04 09:46:00,58.3,44.5,30.06,North,4,1.0,5.0,60,0.00,,,0.00,Wunderground v.1.15,2013-02-04 16:46:00,
2013-02-04 09:51:00,58.8,44.5,30.06,NNW,348,1.0,5.0,59,0.00,,,0.00,Wunderground v.1.15,2013-02-04 16:51:00,
2013-02-04 09:56:00,59.3,45.0,30.06,North,5,6.0,7.0,59,0.00,,,0.00,Wunderground v.1.15,2013-02-04 16:56:00,
2013-02-04 10:01:00,59.5,44.7,30.06,NNW,339,6.0,8.0,58,0.00,,,0.00,Wunderground v.1.15,2013-02-04 17:01:00,
2013-02-04 10:06:00,59.6,44.8,30.06,NNE,16,5.0,9.0,58,0.00,,,0.00,Wunderground v.1.15,2013-02-04 17:06:00,
2013-02-04 10:11:00,60.0,45.2,30.06,NNE,23,3.0,7.0,58,0.00,,,0.00,Wunderground v.1.15,2013-02-04 17:11:00,
2013-02-04 10:16:00,60.3,45.5,30.06,NNE,12,2.0,8.0,58,0.00,,,0.00,Wunderground v.1.15,2013-02-04 17:16:00,
2013-02-04 10:21:00,61.1,44.8,30.06,North,8,1.0,5.0,55,0.00,,,0.00,Wunderground v.1.15,2013-02-04 17:21:00,
2013-02-04 10:26:00,62.0,44.7,30.06,NNE,20,4.0,5.0,53,0.00,,,0.00,Wunderground v.1.15,2013-02-04 17:26:00,
2013-02-04 10:31:00,62.5,44.6,30.07,NNW,327,1.0,5.0,52,0.00,,,0.00,Wunderground v.1.15,2013-02-04 17:31:00,
2013-02-04 10:36:00,63.2,44.2,30.07,NNE,12,0.0,5.0,50,0.00,,,0.00,Wunderground v.1.15,2013-02-04 17:36:00,
2013-02-04 10:41:00,64.1,43.4,30.07,NE,47,1.0,5.0,47,0.00,,,0.00,Wunderground v.1.15,2013-02-04 17:41:00,
2013-02-04 10:46:00,64.9,41.9,30.07,North,6,3.0,6.0,43,0.00,,,0.00,Wunderground v.1.15,2013-02-04 17:46:00,
2013-02-04 10:51:00,65.4,41.7,30.07,NNE,22,1.0,2.0,42,0.00,,,0.00,Wunderground v.1.15,2013-02-04 17:51:00,
2013-02-04 10:56:00,66.0,40.3,30.07,ESE,118,3.0,7.0,39,0.00,,,0.00,Wunderground v.1.15,2013-02-04 17:56:00,
2013-02-04 11:01:00,66.3,40.6,30.07,NE,37,2.0,2.0,39,0.00,,,0.00,Wunderground v.1.15,2013-02-04 18:01:00,
2013-02-04 11:06:00,66.6,39.5,30.07,NNW,348,4.0,4.0,37,0.00,,,0.00,Wunderground v.1.15,2013-02-04 18:06:00,
2013-02-04 11:11:00,66.7,38.9,30.07,North,6,3.0,4.0,36,0.00,,,0.00,Wunderground v.1.15,2013-02-04 18:11:00,
2013-02-04 11:16:00,66.8,39.0,30.07,NE,48,2.0,9.0,36,0.00,,,0.00,Wunderground v.1.15,2013-02-04 18:16:00,
2013-02-04 11:21:00,67.3,40.8,30.06,East,82,3.0,3.0,38,0.00,,,0.00,Wunderground v.1.15,2013-02-04 18:21:00,
2013-02-04 11:26:00,67.8,38.4,30.06,North,8,8.0,9.0,34,0.00,,,0.00,Wunderground v.1.15,2013-02-04 18:26:00,
2013-02-04 11:31:00,67.6,38.2,30.06,ENE,72,2.0,6.0,34,0.00,,,0.00,Wunderground v.1.15,2013-02-04 18:31:00,
2013-02-04 11:36:00,67.6,38.2,30.06,NNE,32,4.0,7.0,34,0.00,,,0.00,Wunderground v.1.15,2013-02-04 18:36:00,
2013-02-04 11:41:00,68.1,38.7,30.06,NNW,333,0.0,2.0,34,0.00,,,0.00,Wunderground v.1.15,2013-02-04 18:41:00,
2013-02-04 11:46:00,68.6,38.3,30.05,NE,44,1.0,7.0,33,0.00,,,0.00,Wunderground v.1.15,2013-02-04 18:46:00,
2013-02-04 11:51:00,68.7,38.4,30.05,NW,316,1.0,4.0,33,0.00,,,0.00,Wunderground v.1.15,2013-02-04 18:51:00,
2013-02-04 11:56:00,69.2,38.1,30.05,East,84,2.0,4.0,32,0.00,,,0.00,Wunderground v.1.15,2013-02-04 18:56:00,
2013-02-04 12:01:00,69.6,38.4,30.05,North,3,2.0,4.0,32,0.00,,,0.00,Wunderground v.1.15,2013-02-04 19:01:00,
2013-02-04 12:06:00,69.4,37.4,30.04,East,101,2.0,8.0,31,0.00,,,0.00,Wunderground v.1.15,2013-02-04 19:06:00,
2013-02-04 12:11:00,69.6,37.6,30.04,NW,321,5.0,11.0,31,0.00,,,0.00,Wunderground v.1.15,2013-02-04 19:11:00,
2013-02-04 12:16:00,69.6,37.6,30.04,NE,34,2.0,11.0,31,0.00,,,0.00,Wunderground v.1.15,2013-02-04 19:16:00,
2013-02-04 12:21:00,69.7,37.7,30.04,NE,52,2.0,8.0,31,0.00,,,0.00,Wunderground v.1.15,2013-02-04 19:21:00,
2013-02-04 12:26:00,69.8,37.8,30.03,NNE,27,7.0,13.0,31,0.00,,,0.00,Wunderground v.1.15,2013-02-04 19:26:00,
2013-02-04 12:31:00,70.1,38.0,30.03,NNE,17,2.0,8.0,31,0.00,,,0.00,Wunderground v.1.15,2013-02-04 19:31:00,
2013-02-04 12:36:00,70.2,37.3,30.03,NE,54,3.0,12.0,30,0.00,,,0.00,Wunderground v.1.15,2013-02-04 19:36:00,
2013-02-04 12:42:00,70.2,38.1,30.03,NE,36,1.0,8.0,31,0.00,,,0.00,Wunderground v.1.15,2013-02-04 19:42:00,
2013-02-04 12:47:00,70.6,38.5,30.03,WNW,296,1.0,8.0,31,0.00,,,0.00,Wunderground v.1.15,2013-02-04 19:47:00,
2013-02-04 12:52:00,70.7,37.7,30.02,NNE,13,3.0,4.0,30,0.00,,,0.00,Wunderground v.1.15,2013-02-04 19:52:00,
2013-02-04 12:57:00,71.2,38.2,30.02,NE,37,2.0,9.0,30,0.00,,,0.00,Wunderground v.1.15,2013-02-04 19:57:00,
2013-02-04 13:02:00,71.4,38.3,30.02,North,355,8.0,8.0,30,0.00,,,0.00,Wunderground v.1.15,2013-02-04 20:02:00,
2013-02-04 13:07:00,71.6,37.6,30.01,NNE,30,2.0,9.0,29,0.00,,,0.00,Wunderground v.1.15,2013-02-04 20:07:00,
2013-02-04 13:12:00,72.3,38.2,30.01,NE,36,6.0,6.0,29,0.00,,,0.00,Wunderground v.1.15,2013-02-04 20:12:00,
2013-02-04 13:17:00,72.2,36.3,30.01,NE,46,4.0,9.0,27,0.00,,,0.00,Wunderground v.1.15,2013-02-04 20:17:00,
2013-02-04 13:22:00,72.2,37.3,30.01,East,86,1.0,4.0,28,0.00,,,0.00,Wunderground v.1.15,2013-02-04 20:22:00,
2013-02-04 13:27:00,72.7,37.7,30.00,ENE,72,1.0,4.0,28,0.00,,,0.00,Wunderground v.1.15,2013-02-04 20:27:00,
2013-02-04 13:32:00,72.6,36.7,30.00,NE,54,6.0,6.0,27,0.00,,,0.00,Wunderground v.1.15,2013-02-04 20:32:00,
2013-02-04 13:37:00,72.5,36.6,30.00,WSW,245,1.0,10.0,27,0.00,,,0.00,Wunderground v.1.15,2013-02-04 20:37:00,
2013-02-04 13:42:00,72.9,36.9,30.00,East,87,2.0,7.0,27,0.00,,,0.00,Wunderground v.1.15,2013-02-04 20:42:00,
2013-02-04 13:47:00,73.2,36.2,30.00,NNW,343,2.0,7.0,26,0.00,,,0.00,Wunderground v.1.15,2013-02-04 20:47:00,
2013-02-04 13:52:00,73.5,36.5,29.99,ENE,58,1.0,6.0,26,0.00,,,0.00,Wunderground v.1.15,2013-02-04 20:52:00,
2013-02-04 13:57:00,73.4,37.4,29.99,North,353,3.0,9.0,27,0.00,,,0.00,Wunderground v.1.15,2013-02-04 20:57:00,
2013-02-04 14:02:00,73.4,37.4,29.99,NE,40,2.0,5.0,27,0.00,,,0.00,Wunderground v.1.15,2013-02-04 21:02:00,
2013-02-04 14:07:00,72.6,37.6,29.99,NW,308,2.0,9.0,28,0.00,,,0.00,Wunderground v.1.15,2013-02-04 21:07:00,
2013-02-04 14:12:00,72.8,37.8,29.98,ESE,108,0.0,6.0,28,0.00,,,0.00,Wunderground v.1.15,2013-02-04 21:12:00,
2013-02-04 14:17:00,73.5,38.4,29.98,NE,54,1.0,6.0,28,0.00,,,0.00,Wunderground v.1.15,2013-02-04 21:17:00,
2013-02-04 14:22:00,74.2,38.1,29.98,NE,42,5.0,5.0,27,0.00,,,0.00,Wunderground v.1.15,2013-02-04 21:22:00,
2013-02-04 14:27:00,74.2,38.1,29.98,ENE,64,1.0,6.0,27,0.00,,,0.00,Wunderground v.1.15,2013-02-04 21:27:00,
2013-02-04 14:32:00,74.5,38.3,29.97,NNE,14,2.0,5.0,27,0.00,,,0.00,Wunderground v.1.15,2013-02-04 21:32:00,
2013-02-04 14:37:00,74.3,37.2,29.97,ENE,63,3.0,7.0,26,0.00,,,0.00,Wunderground v.1.15,2013-02-04 21:37:00,
2013-02-04 14:42:00,74.3,37.2,29.97,ENE,73,0.0,3.0,26,0.00,,,0.00,Wunderground v.1.15,2013-02-04 21:42:00,
2013-02-04 14:47:00,74.4,37.3,29.96,ENE,60,2.0,9.0,26,0.00,,,0.00,Wunderground v.1.15,2013-02-04 21:47:00,
2013-02-04 14:52:00,74.8,38.6,29.96,NW,311,0.0,6.0,27,0.00,,,0.00,Wunderground v.1.15,2013-02-04 21:52:00,
2013-02-04 14:57:00,75.0,38.7,29.96,NE,51,1.0,6.0,27,0.00,,,0.00,Wunderground v.1.15,2013-02-04 21:57:00,
2013-02-04 15:02:00,75.0,36.8,29.96,ESE,111,6.0,6.0,25,0.00,,,0.00,Wunderground v.1.15,2013-02-04 22:02:00,
2013-02-04 15:07:00,74.7,36.5,29.95,ENE,63,0.0,11.0,25,0.00,,,0.00,Wunderground v.1.15,2013-02-04 22:07:00,
2013-02-04 15:12:00,74.9,37.7,29.95,ESE,120,0.0,4.0,26,0.00,,,0.00,Wunderground v.1.15,2013-02-04 22:12:00,
2013-02-04 15:17:00,75.3,37.0,29.95,East,81,5.0,6.0,25,0.00,,,0.00,Wunderground v.1.15,2013-02-04 22:17:00,
2013-02-04 15:22:00,75.1,36.9,29.95,SE,129,0.0,6.0,25,0.00,,,0.00,Wunderground v.1.15,2013-02-04 22:22:00,
2013-02-04 15:28:00,75.3,37.0,29.95,SW,233,1.0,6.0,25,0.00,,,0.00,Wunderground v.1.15,2013-02-04 22:28:00,
2013-02-04 15:33:00,75.4,37.1,29.95,NNE,21,4.0,8.0,25,0.00,,,0.00,Wunderground v.1.15,2013-02-04 22:33:00,
2013-02-04 15:38:00,75.4,36.1,29.94,ESE,120,1.0,8.0,24,0.00,,,0.00,Wunderground v.1.15,2013-02-04 22:38:00,
2013-02-04 15:43:00,75.7,35.3,29.94,ENE,75,0.0,5.0,23,0.00,,,0.00,Wunderground v.1.15,2013-02-04 22:43:00,
2013-02-04 15:48:00,75.8,35.3,29.94,ENE,77,6.0,6.0,23,0.00,,,0.00,Wunderground v.1.15,2013-02-04 22:48:00,
2013-02-04 15:53:00,75.5,35.1,29.94,East,86,1.0,4.0,23,0.00,,,0.00,Wunderground v.1.15,2013-02-04 22:53:00,
2013-02-04 15:58:00,75.9,35.4,29.94,NE,39,0.0,4.0,23,0.00,,,0.00,Wunderground v.1.15,2013-02-04 22:58:00,
2013-02-04 16:03:00,75.6,35.2,29.94,SW,221,0.0,5.0,23,0.00,,,0.00,Wunderground v.1.15,2013-02-04 23:03:00,
2013-02-04 16:08:00,75.7,35.3,29.94,WNW,288,0.0,6.0,23,0.00,,,0.00,Wunderground v.1.15,2013-02-04 23:08:00,
2013-02-04 16:13:00,75.9,34.3,29.93,NE,56,2.0,4.0,22,0.00,,,0.00,Wunderground v.1.15,2013-02-04 23:13:00,
2013-02-04 16:18:00,75.8,34.2,29.93,NE,53,0.0,4.0,22,0.00,,,0.00,Wunderground v.1.15,2013-02-04 23:18:00,
2013-02-04 16:23:00,76.0,35.5,29.93,NNE,27,1.0,3.0,23,0.00,,,0.00,Wunderground v.1.15,2013-02-04 23:23:00,
2013-02-04 16:28:00,76.1,36.7,29.93,NNE,12,1.0,4.0,24,0.00,,,0.00,Wunderground v.1.15,2013-02-04 23:28:00,
2013-02-04 16:33:00,76.3,35.8,29.94,SSE,154,0.0,4.0,23,0.00,,,0.00,Wunderground v.1.15,2013-02-04 23:33:00,
2013-02-04 16:38:00,76.4,35.8,29.93,East,97,0.0,4.0,23,0.00,,,0.00,Wunderground v.1.15,2013-02-04 23:38:00,
2013-02-04 16:43:00,76.6,34.9,29.93,NNE,20,1.0,4.0,22,0.00,,,0.00,Wunderground v.1.15,2013-02-04 23:43:00,
2013-02-04 16:48:00,76.8,35.1,29.93,East,79,0.0,4.0,22,0.00,,,0.00,Wunderground v.1.15,2013-02-04 23:48:00,
2013-02-04 16:53:00,76.1,35.6,29.93,East,101,0.0,6.0,23,0.00,,,0.00,Wunderground v.1.15,2013-02-04 23:53:00,
2013-02-04 16:58:00,75.8,35.3,29.93,North,11,1.0,6.0,23,0.00,,,0.00,Wunderground v.1.15,2013-02-04 23:58:00,
2013-02-04 17:03:00,75.7,35.3,29.93,North,10,0.0,2.0,23,0.00,,,0.00,Wunderground v.1.15,2013-02-05 00:03:00,
2013-02-04 17:08:00,75.7,37.4,29.93,NNE,19,3.0,6.0,25,0.00,,,0.00,Wunderground v.1.15,2013-02-05 00:08:00,
2013-02-04 17:13:00,74.6,37.4,29.93,NNE,12,3.0,6.0,26,0.00,,,0.00,Wunderground v.1.15,2013-02-05 00:13:00,
2013-02-04 17:18:00,74.1,36.0,29.93,North,6,1.0,6.0,25,0.00,,,0.00,Wunderground v.1.15,2013-02-05 00:18:00,
2013-02-04 17:23:00,73.6,38.5,29.92,NW,321,4.0,6.0,28,0.00,,,0.00,Wunderground v.1.15,2013-02-05 00:23:00,
2013-02-04 17:28:00,73.0,39.7,29.93,North,355,4.0,7.0,30,0.00,,,0.00,Wunderground v.1.15,2013-02-05 00:28:00,
2013-02-04 17:33:00,72.6,37.6,29.93,North,1,1.0,4.0,28,0.00,,,0.00,Wunderground v.1.15,2013-02-05 00:33:00,
2013-02-04 17:38:00,72.7,36.8,29.93,North,1,2.0,4.0,27,0.00,,,0.00,Wunderground v.1.15,2013-02-05 00:38:00,
2013-02-04 17:43:00,72.7,36.8,29.93,NNE,12,3.0,4.0,27,0.00,,,0.00,Wunderground v.1.15,2013-02-05 00:43:00,
2013-02-04 17:49:00,72.4,37.4,29.93,NNE,16,2.0,4.0,28,0.00,,,0.00,Wunderground v.1.15,2013-02-05 00:49:00,
2013-02-04 17:54:00,72.1,38.1,29.93,North,351,1.0,3.0,29,0.00,,,0.00,Wunderground v.1.15,2013-02-05 00:54:00,
2013-02-04 17:59:00,71.9,37.0,29.93,North,352,0.0,3.0,28,0.00,,,0.00,Wunderground v.1.15,2013-02-05 00:59:00,
2013-02-04 18:04:00,72.0,36.2,29.93,NNW,345,0.0,1.0,27,0.00,,,0.00,Wunderground v.1.15,2013-02-05 01:04:00,
2013-02-04 18:09:00,71.7,36.8,29.93,NNW,345,0.0,1.0,28,0.00,,,0.00,Wunderground v.1.15,2013-02-05 01:09:00,
2013-02-04 18:14:00,70.8,36.1,29.93,North,358,1.0,1.0,28,0.00,,,0.00,Wunderground v.1.15,2013-02-05 01:14:00,
2013-02-04 18:19:00,69.8,36.1,29.93,North,359,0.0,1.0,29,0.00,,,0.00,Wunderground v.1.15,2013-02-05 01:19:00,
2013-02-04 18:24:00,68.9,36.2,29.93,North,359,0.0,1.0,30,0.00,,,0.00,Wunderground v.1.15,2013-02-05 01:24:00,
2013-02-04 18:29:00,68.2,37.2,29.93,North,360,0.0,1.0,32,0.00,,,0.00,Wunderground v.1.15,2013-02-05 01:29:00,
2013-02-04 18:34:00,67.5,36.6,29.94,North,360,0.0,1.0,32,0.00,,,0.00,Wunderground v.1.15,2013-02-05 01:34:00,
2013-02-04 18:39:00,66.8,37.5,29.94,North,360,0.0,1.0,34,0.00,,,0.00,Wunderground v.1.15,2013-02-05 01:39:00,
2013-02-04 18:44:00,66.6,37.3,29.94,North,360,0.0,0.0,34,0.00,,,0.00,Wunderground v.1.15,2013-02-05 01:44:00,
2013-02-04 18:49:00,66.4,37.2,29.94,North,360,0.0,0.0,34,0.00,,,0.00,Wunderground v.1.15,2013-02-05 01:49:00,
2013-02-04 18:54:00,66.3,37.1,29.94,North,360,0.0,1.0,34,0.00,,,0.00,Wunderground v.1.15,2013-02-05 01:54:00,
2013-02-04 18:59:00,65.9,37.5,29.94,North,360,0.0,1.0,35,0.00,,,0.00,Wunderground v.1.15,2013-02-05 01:59:00,
2013-02-04 19:04:00,65.5,37.1,29.94,North,359,0.0,0.0,35,0.00,,,0.00,Wunderground v.1.15,2013-02-05 02:04:00,
2013-02-04 19:09:00,65.2,38.3,29.95,North,359,0.0,0.0,37,0.00,,,0.00,Wunderground v.1.15,2013-02-05 02:09:00,
2013-02-04 19:14:00,64.9,38.0,29.95,ESE,103,1.0,1.0,37,0.00,,,0.00,Wunderground v.1.15,2013-02-05 02:14:00,
2013-02-04 19:19:00,64.8,37.9,29.95,East,101,0.0,1.0,37,0.00,,,0.00,Wunderground v.1.15,2013-02-05 02:19:00,
2013-02-04 19:24:00,64.8,37.2,29.95,ESE,102,0.0,1.0,36,0.00,,,0.00,Wunderground v.1.15,2013-02-05 02:24:00,
2013-02-04 19:29:00,64.8,37.9,29.95,East,94,0.0,1.0,37,0.00,,,0.00,Wunderground v.1.15,2013-02-05 02:29:00,
2013-02-04 19:34:00,64.7,37.8,29.95,East,91,1.0,2.0,37,0.00,,,0.00,Wunderground v.1.15,2013-02-05 02:34:00,
2013-02-04 19:39:00,64.6,38.4,29.95,East,94,1.0,2.0,38,0.00,,,0.00,Wunderground v.1.15,2013-02-05 02:39:00,
2013-02-04 19:44:00,64.6,38.4,29.95,ESE,105,2.0,3.0,38,0.00,,,0.00,Wunderground v.1.15,2013-02-05 02:44:00,
2013-02-04 19:49:00,64.6,38.4,29.95,ESE,103,2.0,3.0,38,0.00,,,0.00,Wunderground v.1.15,2013-02-05 02:49:00,
2013-02-04 19:54:00,64.5,39.0,29.95,ESE,102,2.0,3.0,39,0.00,,,0.00,Wunderground v.1.15,2013-02-05 02:54:00,
2013-02-04 19:59:00,64.6,38.4,29.95,East,98,2.0,3.0,38,0.00,,,0.00,Wunderground v.1.15,2013-02-05 02:59:00,
2013-02-04 20:04:00,64.8,37.9,29.96,East,86,1.0,2.0,37,0.00,,,0.00,Wunderground v.1.15,2013-02-05 03:04:00,
2013-02-04 20:09:00,64.6,38.4,29.96,ENE,66,0.0,2.0,38,0.00,,,0.00,Wunderground v.1.15,2013-02-05 03:09:00,
2013-02-04 20:14:00,63.7,38.9,29.96,ESE,120,0.0,1.0,40,0.00,,,0.00,Wunderground v.1.15,2013-02-05 03:14:00,
2013-02-04 20:19:00,62.8,40.0,29.96,ESE,117,1.0,1.0,43,0.00,,,0.00,Wunderground v.1.15,2013-02-05 03:19:00,
2013-02-04 20:24:00,61.7,40.7,29.96,ESE,120,0.0,1.0,46,0.00,,,0.00,Wunderground v.1.15,2013-02-05 03:24:00,
2013-02-04 20:29:00,60.9,41.6,29.96,SE,124,1.0,2.0,49,0.00,,,0.00,Wunderground v.1.15,2013-02-05 03:29:00,
2013-02-04 20:34:00,60.4,41.7,29.96,SE,127,1.0,1.0,50,0.00,,,0.00,Wunderground v.1.15,2013-02-05 03:34:00,
2013-02-04 20:39:00,60.1,41.9,29.96,SE,131,2.0,3.0,51,0.00,,,0.00,Wunderground v.1.15,2013-02-05 03:39:00,
2013-02-04 20:44:00,59.8,42.1,29.96,SE,132,2.0,3.0,52,0.00,,,0.00,Wunderground v.1.15,2013-02-05 03:44:00,
2013-02-04 20:49:00,59.6,42.4,29.97,SE,134,2.0,3.0,53,0.00,,,0.00,Wunderground v.1.15,2013-02-05 03:49:00,
2013-02-04 20:54:00,59.5,41.3,29.97,SE,134,1.0,2.0,51,0.00,,,0.00,Wunderground v.1.15,2013-02-05 03:54:00,
2013-02-04 20:59:00,59.7,41.5,29.97,ESE,123,2.0,3.0,51,0.00,,,0.00,Wunderground v.1.15,2013-02-05 03:59:00,
2013-02-04 21:04:00,59.8,41.6,29.97,ESE,115,1.0,4.0,51,0.00,,,0.00,Wunderground v.1.15,2013-02-05 04:04:00,
2013-02-04 21:09:00,59.9,41.2,29.97,ESE,115,1.0,4.0,50,0.00,,,0.00,Wunderground v.1.15,2013-02-05 04:09:00,
2013-02-04 21:14:00,59.9,41.7,29.97,SE,138,0.0,2.0,51,0.00,,,0.00,Wunderground v.1.15,2013-02-05 04:14:00,
2013-02-04 21:19:00,59.3,41.7,29.97,SE,138,0.0,2.0,52,0.00,,,0.00,Wunderground v.1.15,2013-02-05 04:19:00,
2013-02-04 21:25:00,58.3,42.2,29.97,SSW,203,0.0,2.0,55,0.00,,,0.00,Wunderground v.1.15,2013-02-05 04:25:00,
2013-02-04 21:30:00,57.9,41.3,29.97,South,184,0.0,1.0,54,0.00,,,0.00,Wunderground v.1.15,2013-02-05 04:30:00,
2013-02-04 21:35:00,57.6,41.1,29.97,South,190,0.0,1.0,54,0.00,,,0.00,Wunderground v.1.15,2013-02-05 04:35:00,
2013-02-04 21:40:00,57.3,40.8,29.97,South,191,0.0,0.0,54,0.00,,,0.00,Wunderground v.1.15,2013-02-05 04:40:00,
2013-02-04 21:45:00,57.3,41.3,29.97,SW,220,0.0,1.0,55,0.00,,,0.00,Wunderground v.1.15,2013-02-05 04:45:00,
2013-02-04 21:50:00,57.3,40.8,29.97,WSW,253,0.0,0.0,54,0.00,,,0.00,Wunderground v.1.15,2013-02-05 04:50:00,
2013-02-04 21:55:00,57.1,40.1,29.98,WSW,253,0.0,0.0,53,0.00,,,0.00,Wunderground v.1.15,2013-02-05 04:55:00,
2013-02-04 22:00:00,57.0,40.0,29.98,WSW,253,0.0,0.0,53,0.00,,,0.00,Wunderground v.1.15,2013-02-05 05:00:00,
2013-02-04 22:01:00,57.0,40.0,29.98,WSW,253,0.0,0.0,53,0.00,,,0.00,Wunderground v.1.15,2013-02-05 05:01:00,
2013-02-04 22:06:00,56.8,39.4,29.98,SW,215,0.0,1.0,52,0.00,,,0.00,Wunderground v.1.15,2013-02-05 05:06:00,
2013-02-04 22:11:00,56.8,39.8,29.98,ESE,115,0.0,0.0,53,0.00,,,0.00,Wunderground v.1.15,2013-02-05 05:11:00,
2013-02-04 22:16:00,56.6,40.1,29.98,ESE,116,0.0,1.0,54,0.00,,,0.00,Wunderground v.1.15,2013-02-05 05:16:00,
2013-02-04 22:21:00,56.3,40.3,29.98,ESE,115,0.0,0.0,55,0.00,,,0.00,Wunderground v.1.15,2013-02-05 05:21:00,
2013-02-04 22:26:00,55.8,40.8,29.98,ESE,115,0.0,1.0,57,0.00,,,0.00,Wunderground v.1.15,2013-02-05 05:26:00,
2013-02-04 22:31:00,55.3,40.8,29.98,ESE,116,0.0,0.0,58,0.00,,,0.00,Wunderground v.1.15,2013-02-05 05:31:00,
2013-02-04 22:36:00,54.8,40.7,29.98,ESE,117,0.0,0.0,59,0.00,,,0.00,Wunderground v.1.15,2013-02-05 05:36:00,
2013-02-04 22:41:00,54.7,41.1,29.98,SE,124,0.0,1.0,60,0.00,,,0.00,Wunderground v.1.15,2013-02-05 05:41:00,
2013-02-04 22:46:00,54.7,40.6,29.98,ESE,115,0.0,1.0,59,0.00,,,0.00,Wunderground v.1.15,2013-02-05 05:46:00,
2013-02-04 22:51:00,54.8,40.7,29.98,ESE,115,0.0,0.0,59,0.00,,,0.00,Wunderground v.1.15,2013-02-05 05:51:00,
2013-02-04 22:56:00,55.2,40.7,29.98,ESE,122,1.0,2.0,58,0.00,,,0.00,Wunderground v.1.15,2013-02-05 05:56:00,
2013-02-04 23:01:00,55.7,40.2,29.98,ESE,113,2.0,3.0,56,0.00,,,0.00,Wunderground v.1.15,2013-02-05 06:01:00,
2013-02-04 23:06:00,56.2,40.2,29.98,SE,125,1.0,3.0,55,0.00,,,0.00,Wunderground v.1.15,2013-02-05 06:06:00,
2013-02-04 23:11:00,56.0,40.5,29.98,SE,132,2.0,2.0,56,0.00,,,0.00,Wunderground v.1.15,2013-02-05 06:11:00,
2013-02-04 23:16:00,55.8,40.8,29.98,ESE,113,1.0,2.0,57,0.00,,,0.00,Wunderground v.1.15,2013-02-05 06:16:00,
2013-02-04 23:21:00,56.1,40.6,29.98,SE,136,1.0,2.0,56,0.00,,,0.00,Wunderground v.1.15,2013-02-05 06:21:00,
2013-02-04 23:26:00,56.0,40.5,29.98,ESE,122,2.0,3.0,56,0.00,,,0.00,Wunderground v.1.15,2013-02-05 06:26:00,
2013-02-04 23:31:00,55.3,41.2,29.98,SE,125,1.0,2.0,59,0.00,,,0.00,Wunderground v.1.15,2013-02-05 06:31:00,
2013-02-04 23:36:00,55.0,41.4,29.98,ESE,117,2.0,4.0,60,0.00,,,0.00,Wunderground v.1.15,2013-02-05 06:36:00,
2013-02-04 23:41:00,55.2,41.5,29.98,ESE,113,4.0,4.0,60,0.00,,,0.00,Wunderground v.1.15,2013-02-05 06:41:00,
2013-02-04 23:46:00,55.3,41.6,29.98,SE,135,2.0,5.0,60,0.00,,,0.00,Wunderground v.1.15,2013-02-05 06:46:00,
2013-02-04 23:51:00,55.1,41.5,29.98,SE,124,0.0,2.0,60,0.00,,,0.00,Wunderground v.1.15,2013-02-05 06:51:00,
2013-02-04 23:56:00,54.9,41.3,29.98,SE,134,2.0,3.0,60,0.00,,,0.00,Wunderground v.1.15,2013-02-05 06:56:00,